sensor_id;sensor_type;location;lat;lon;timestamp;pressure;altitude;pressure_sealevel;temperature;humidity
56713;BME280;42589;45.536;9.032;2023-04-09T00:02:09;99970.97;;;17.76;40.00
56713;BME280;42589;45.536;9.032;2023-04-09T00:05:11;99972.53;;;17.85;39.84
56713;BME280;42589;45.536;9.032;2023-04-09T00:08:11;99975.44;;;17.83;40.22
56713;BME280;42589;45.536;9.032;2023-04-09T00:11:12;99962.53;;;17.51;41.06
56713;BME280;42589;45.536;9.032;2023-04-09T00:14:13;99960.94;;;17.63;40.35
56713;BME280;42589;45.536;9.032;2023-04-09T00:17:14;99968.09;;;17.99;40.19
56713;BME280;42589;45.536;9.032;2023-04-09T00:20:15;99961.25;;;17.96;39.64
56713;BME280;42589;45.536;9.032;2023-04-09T00:23:16;99966.41;;;17.98;39.59
56713;BME280;42589;45.536;9.032;2023-04-09T00:26:17;99961.25;;;17.75;40.05
56713;BME280;42589;45.536;9.032;2023-04-09T00:29:17;99964.06;;;17.38;40.41
56713;BME280;42589;45.536;9.032;2023-04-09T00:32:18;99961.72;;;17.78;40.05
56713;BME280;42589;45.536;9.032;2023-04-09T00:35:20;99960.78;;;17.86;39.81
56713;BME280;42589;45.536;9.032;2023-04-09T00:38:20;99956.56;;;17.77;39.72
56713;BME280;42589;45.536;9.032;2023-04-09T00:41:21;99946.75;;;17.97;39.26
56713;BME280;42589;45.536;9.032;2023-04-09T00:44:22;99955.91;;;18.03;38.81
56713;BME280;42589;45.536;9.032;2023-04-09T00:47:22;99955.47;;;17.99;38.93
56713;BME280;42589;45.536;9.032;2023-04-09T00:50:23;99969.94;;;17.49;40.42
56713;BME280;42589;45.536;9.032;2023-04-09T00:53:24;99965.50;;;17.84;39.59
56713;BME280;42589;45.536;9.032;2023-04-09T00:56:25;99960.47;;;17.53;40.33
56713;BME280;42589;45.536;9.032;2023-04-09T00:59:26;99964.31;;;17.93;39.46
56713;BME280;42589;45.536;9.032;2023-04-09T01:02:27;99948.59;;;17.69;39.28
56713;BME280;42589;45.536;9.032;2023-04-09T01:05:35;99976.03;;;17.85;39.44
56713;BME280;42589;45.536;9.032;2023-04-09T01:09:07;99972.97;;;17.89;39.54
56713;BME280;42589;45.536;9.032;2023-04-09T01:12:21;99962.09;;;17.75;39.39
56713;BME280;42589;45.536;9.032;2023-04-09T01:15:28;99972.69;;;17.77;40.03
56713;BME280;42589;45.536;9.032;2023-04-09T01:18:37;99954.25;;;17.52;39.48
56713;BME280;42589;45.536;9.032;2023-04-09T01:21:39;99967.31;;;17.34;39.96
56713;BME280;42589;45.536;9.032;2023-04-09T01:24:56;99965.84;;;17.53;39.64
56713;BME280;42589;45.536;9.032;2023-04-09T01:31:20;99963.19;;;17.59;40.20
56713;BME280;42589;45.536;9.032;2023-04-09T01:34:24;99962.91;;;17.48;39.59
56713;BME280;42589;45.536;9.032;2023-04-09T01:37:26;99958.09;;;17.43;39.71
56713;BME280;42589;45.536;9.032;2023-04-09T01:40:28;99967.56;;;17.60;39.45
56713;BME280;42589;45.536;9.032;2023-04-09T01:43:29;99974.47;;;17.27;40.40
56713;BME280;42589;45.536;9.032;2023-04-09T01:46:32;99971.53;;;17.43;39.96
56713;BME280;42589;45.536;9.032;2023-04-09T01:49:37;99965.28;;;17.57;39.80
56713;BME280;42589;45.536;9.032;2023-04-09T01:52:39;99970.06;;;17.40;39.45
56713;BME280;42589;45.536;9.032;2023-04-09T01:55:40;99965.22;;;17.51;39.27
56713;BME280;42589;45.536;9.032;2023-04-09T01:58:41;99976.53;;;17.46;39.51
56713;BME280;42589;45.536;9.032;2023-04-09T02:01:45;99984.47;;;17.33;39.49
56713;BME280;42589;45.536;9.032;2023-04-09T02:04:46;99975.00;;;17.37;39.41
56713;BME280;42589;45.536;9.032;2023-04-09T02:07:58;99981.34;;;17.51;39.99
56713;BME280;42589;45.536;9.032;2023-04-09T02:11:04;99989.31;;;17.44;39.83
56713;BME280;42589;45.536;9.032;2023-04-09T02:14:10;99989.72;;;17.20;39.62
56713;BME280;42589;45.536;9.032;2023-04-09T02:17:12;99981.09;;;16.88;40.35
56713;BME280;42589;45.536;9.032;2023-04-09T02:20:17;99980.44;;;17.22;39.84
56713;BME280;42589;45.536;9.032;2023-04-09T02:23:18;99983.31;;;17.21;39.51
56713;BME280;42589;45.536;9.032;2023-04-09T02:26:18;99981.06;;;17.24;39.65
56713;BME280;42589;45.536;9.032;2023-04-09T02:29:19;99984.28;;;17.13;39.71
56713;BME280;42589;45.536;9.032;2023-04-09T02:32:20;99983.41;;;17.12;39.51
56713;BME280;42589;45.536;9.032;2023-04-09T02:35:21;99984.44;;;17.11;39.54
56713;BME280;42589;45.536;9.032;2023-04-09T02:38:21;99987.09;;;16.90;39.81
56713;BME280;42589;45.536;9.032;2023-04-09T02:41:22;99967.69;;;16.88;39.72
56713;BME280;42589;45.536;9.032;2023-04-09T02:44:24;99990.53;;;16.69;40.54
56713;BME280;42589;45.536;9.032;2023-04-09T02:47:25;99999.72;;;16.75;40.34
56713;BME280;42589;45.536;9.032;2023-04-09T02:50:32;99989.34;;;16.57;41.27
56713;BME280;42589;45.536;9.032;2023-04-09T02:53:32;99994.50;;;16.58;40.61
56713;BME280;42589;45.536;9.032;2023-04-09T02:56:33;99994.72;;;16.42;41.11
56713;BME280;42589;45.536;9.032;2023-04-09T02:59:33;100008.69;;;16.52;40.95
56713;BME280;42589;45.536;9.032;2023-04-09T03:02:35;99994.22;;;16.68;40.49
56713;BME280;42589;45.536;9.032;2023-04-09T03:05:35;99984.81;;;16.57;40.75
56713;BME280;42589;45.536;9.032;2023-04-09T03:08:35;99990.91;;;16.51;40.96
56713;BME280;42589;45.536;9.032;2023-04-09T03:11:37;100001.09;;;16.41;40.93
56713;BME280;42589;45.536;9.032;2023-04-09T03:14:38;99996.19;;;16.30;40.93
56713;BME280;42589;45.536;9.032;2023-04-09T03:17:39;99989.47;;;16.34;41.11
56713;BME280;42589;45.536;9.032;2023-04-09T03:20:40;99990.84;;;16.15;41.12
56713;BME280;42589;45.536;9.032;2023-04-09T03:23:41;99978.63;;;16.12;40.93
56713;BME280;42589;45.536;9.032;2023-04-09T03:26:42;99998.72;;;16.31;40.85
56713;BME280;42589;45.536;9.032;2023-04-09T03:29:43;100003.31;;;16.22;40.95
56713;BME280;42589;45.536;9.032;2023-04-09T03:32:44;99997.13;;;16.22;41.17
56713;BME280;42589;45.536;9.032;2023-04-09T03:35:44;100002.09;;;16.10;41.53
56713;BME280;42589;45.536;9.032;2023-04-09T03:38:45;100005.09;;;15.77;41.93
56713;BME280;42589;45.536;9.032;2023-04-09T03:41:46;100009.50;;;16.08;41.17
56713;BME280;42589;45.536;9.032;2023-04-09T03:44:47;100002.41;;;16.15;41.20
56713;BME280;42589;45.536;9.032;2023-04-09T03:47:48;100003.31;;;16.22;41.42
56713;BME280;42589;45.536;9.032;2023-04-09T03:50:49;100009.97;;;16.27;40.88
56713;BME280;42589;45.536;9.032;2023-04-09T03:53:49;100009.97;;;16.27;40.81
56713;BME280;42589;45.536;9.032;2023-04-09T03:56:51;100012.66;;;16.12;41.07
56713;BME280;42589;45.536;9.032;2023-04-09T03:59:52;100009.22;;;16.03;41.51
56713;BME280;42589;45.536;9.032;2023-04-09T04:02:53;99998.88;;;16.15;41.04
56713;BME280;42589;45.536;9.032;2023-04-09T04:05:59;99994.63;;;16.06;41.80
56713;BME280;42589;45.536;9.032;2023-04-09T04:09:01;100015.25;;;16.05;41.29
56713;BME280;42589;45.536;9.032;2023-04-09T04:12:02;100010.50;;;16.07;41.50
56713;BME280;42589;45.536;9.032;2023-04-09T04:15:03;100005.06;;;16.15;41.67
56713;BME280;42589;45.536;9.032;2023-04-09T04:18:04;99999.78;;;16.07;41.32
56713;BME280;42589;45.536;9.032;2023-04-09T04:21:04;100005.41;;;15.97;41.86
56713;BME280;42589;45.536;9.032;2023-04-09T04:24:05;100007.38;;;16.33;40.38
56713;BME280;42589;45.536;9.032;2023-04-09T04:27:06;100014.03;;;16.22;40.85
56713;BME280;42589;45.536;9.032;2023-04-09T04:30:07;100017.81;;;15.98;41.16
56713;BME280;42589;45.536;9.032;2023-04-09T04:33:08;100007.06;;;15.84;40.88
56713;BME280;42589;45.536;9.032;2023-04-09T04:36:10;100018.44;;;16.00;41.84
56713;BME280;42589;45.536;9.032;2023-04-09T04:39:11;100012.56;;;16.05;40.87
56713;BME280;42589;45.536;9.032;2023-04-09T04:42:12;100020.56;;;15.44;41.69
56713;BME280;42589;45.536;9.032;2023-04-09T04:45:13;100018.03;;;15.89;41.04
56713;BME280;42589;45.536;9.032;2023-04-09T04:48:14;100033.78;;;15.92;40.74
56713;BME280;42589;45.536;9.032;2023-04-09T04:51:15;100037.31;;;15.92;41.03
56713;BME280;42589;45.536;9.032;2023-04-09T04:54:15;100030.97;;;15.85;40.66
56713;BME280;42589;45.536;9.032;2023-04-09T04:57:16;100038.19;;;15.85;40.83
56713;BME280;42589;45.536;9.032;2023-04-09T05:00:17;100035.75;;;15.75;41.05
56713;BME280;42589;45.536;9.032;2023-04-09T05:03:18;100042.03;;;15.67;41.59
56713;BME280;42589;45.536;9.032;2023-04-09T05:06:18;100037.06;;;15.56;41.28
56713;BME280;42589;45.536;9.032;2023-04-09T05:09:19;100058.94;;;15.68;41.18
56713;BME280;42589;45.536;9.032;2023-04-09T05:12:20;100045.47;;;15.76;41.23
56713;BME280;42589;45.536;9.032;2023-04-09T05:15:21;100069.19;;;15.87;41.09
56713;BME280;42589;45.536;9.032;2023-04-09T05:18:22;100059.06;;;15.74;41.16
56713;BME280;42589;45.536;9.032;2023-04-09T05:21:23;100058.59;;;15.71;40.95
56713;BME280;42589;45.536;9.032;2023-04-09T05:24:24;100066.84;;;15.84;41.40
56713;BME280;42589;45.536;9.032;2023-04-09T05:27:25;100071.38;;;15.84;40.70
56713;BME280;42589;45.536;9.032;2023-04-09T05:30:27;100081.66;;;15.95;41.32
56713;BME280;42589;45.536;9.032;2023-04-09T05:33:28;100081.06;;;16.08;40.63
56713;BME280;42589;45.536;9.032;2023-04-09T05:36:29;100078.72;;;16.05;41.05
56713;BME280;42589;45.536;9.032;2023-04-09T05:39:31;100073.84;;;15.70;41.31
56713;BME280;42589;45.536;9.032;2023-04-09T05:42:32;100080.03;;;15.08;42.23
56713;BME280;42589;45.536;9.032;2023-04-09T05:45:33;100068.84;;;15.59;41.85
56713;BME280;42589;45.536;9.032;2023-04-09T05:48:34;100070.50;;;15.68;41.44
56713;BME280;42589;45.536;9.032;2023-04-09T05:51:35;100077.16;;;15.72;41.53
56713;BME280;42589;45.536;9.032;2023-04-09T05:54:36;100075.00;;;15.91;41.34
56713;BME280;42589;45.536;9.032;2023-04-09T05:57:37;100076.88;;;15.59;41.50
56713;BME280;42589;45.536;9.032;2023-04-09T06:00:38;100075.69;;;15.62;42.08
56713;BME280;42589;45.536;9.032;2023-04-09T06:03:38;100079.44;;;15.84;41.41
56713;BME280;42589;45.536;9.032;2023-04-09T06:06:39;100076.22;;;16.70;39.60
56713;BME280;42589;45.536;9.032;2023-04-09T06:09:40;100078.03;;;16.78;39.53
56713;BME280;42589;45.536;9.032;2023-04-09T06:12:43;100084.94;;;17.17;38.91
56713;BME280;42589;45.536;9.032;2023-04-09T06:15:44;100098.59;;;17.37;38.64
56713;BME280;42589;45.536;9.032;2023-04-09T06:18:45;100092.09;;;17.68;38.58
56713;BME280;42589;45.536;9.032;2023-04-09T06:21:46;100089.63;;;17.88;38.06
56713;BME280;42589;45.536;9.032;2023-04-09T06:24:50;100106.97;;;18.06;37.73
56713;BME280;42589;45.536;9.032;2023-04-09T06:27:51;100110.16;;;18.17;37.50
56713;BME280;42589;45.536;9.032;2023-04-09T06:30:52;100114.63;;;18.59;37.38
56713;BME280;42589;45.536;9.032;2023-04-09T06:33:54;100110.31;;;18.08;37.41
56713;BME280;42589;45.536;9.032;2023-04-09T06:36:55;100114.63;;;18.59;37.05
56713;BME280;42589;45.536;9.032;2023-04-09T06:39:57;100116.25;;;18.82;36.59
56713;BME280;42589;45.536;9.032;2023-04-09T06:42:58;100119.81;;;18.89;36.48
56713;BME280;42589;45.536;9.032;2023-04-09T06:45:59;100128.94;;;19.29;36.12
56713;BME280;42589;45.536;9.032;2023-04-09T06:49:00;100124.75;;;19.20;35.97
56713;BME280;42589;45.536;9.032;2023-04-09T06:52:01;100124.66;;;19.00;36.63
56713;BME280;42589;45.536;9.032;2023-04-09T06:55:02;100117.06;;;19.17;36.77
56713;BME280;42589;45.536;9.032;2023-04-09T06:58:03;100112.34;;;19.32;36.60
56713;BME280;42589;45.536;9.032;2023-04-09T07:01:04;100109.50;;;18.71;37.33
56713;BME280;42589;45.536;9.032;2023-04-09T07:04:05;100125.78;;;18.77;37.36
56713;BME280;42589;45.536;9.032;2023-04-09T07:07:06;100104.13;;;19.54;36.13
56713;BME280;42589;45.536;9.032;2023-04-09T07:10:09;100120.50;;;19.52;36.25
56713;BME280;42589;45.536;9.032;2023-04-09T07:13:10;100128.50;;;19.93;35.97
56713;BME280;42589;45.536;9.032;2023-04-09T07:16:10;100132.25;;;20.06;35.90
56713;BME280;42589;45.536;9.032;2023-04-09T07:19:14;100136.16;;;19.77;35.79
56713;BME280;42589;45.536;9.032;2023-04-09T07:22:15;100122.47;;;19.85;36.06
56713;BME280;42589;45.536;9.032;2023-04-09T07:25:16;100137.25;;;20.09;35.29
56713;BME280;42589;45.536;9.032;2023-04-09T07:28:17;100121.47;;;19.92;35.45
56713;BME280;42589;45.536;9.032;2023-04-09T07:31:18;100128.31;;;20.22;35.99
56713;BME280;42589;45.536;9.032;2023-04-09T07:34:19;100118.09;;;19.70;36.55
56713;BME280;42589;45.536;9.032;2023-04-09T07:37:24;100133.50;;;19.97;36.53
56713;BME280;42589;45.536;9.032;2023-04-09T07:40:29;100140.56;;;20.64;35.69
56713;BME280;42589;45.536;9.032;2023-04-09T07:43:30;100153.66;;;20.87;34.96
56713;BME280;42589;45.536;9.032;2023-04-09T07:46:31;100154.00;;;21.10;34.62
56713;BME280;42589;45.536;9.032;2023-04-09T07:49:32;100147.88;;;20.57;35.53
56713;BME280;42589;45.536;9.032;2023-04-09T07:52:32;100135.53;;;20.94;34.90
56713;BME280;42589;45.536;9.032;2023-04-09T07:55:33;100140.97;;;20.48;36.27
56713;BME280;42589;45.536;9.032;2023-04-09T07:58:35;100156.78;;;20.37;36.47
56713;BME280;42589;45.536;9.032;2023-04-09T08:01:37;100141.16;;;20.93;35.12
56713;BME280;42589;45.536;9.032;2023-04-09T08:04:39;100156.34;;;20.14;37.05
56713;BME280;42589;45.536;9.032;2023-04-09T08:07:40;100141.09;;;21.19;35.04
56713;BME280;42589;45.536;9.032;2023-04-09T08:10:40;100152.78;;;21.00;35.02
56713;BME280;42589;45.536;9.032;2023-04-09T08:13:40;100139.03;;;21.08;35.15
56713;BME280;42589;45.536;9.032;2023-04-09T08:16:43;100138.53;;;21.44;34.60
56713;BME280;42589;45.536;9.032;2023-04-09T08:19:44;100157.03;;;21.41;35.27
56713;BME280;42589;45.536;9.032;2023-04-09T08:22:45;100160.72;;;21.91;34.42
56713;BME280;42589;45.536;9.032;2023-04-09T08:25:45;100148.03;;;21.92;35.10
56713;BME280;42589;45.536;9.032;2023-04-09T08:28:46;100165.78;;;22.44;33.86
56713;BME280;42589;45.536;9.032;2023-04-09T08:31:47;100166.28;;;22.35;33.75
56713;BME280;42589;45.536;9.032;2023-04-09T08:34:48;100142.00;;;20.93;34.88
56713;BME280;42589;45.536;9.032;2023-04-09T08:37:49;100161.63;;;21.27;35.09
56713;BME280;42589;45.536;9.032;2023-04-09T08:40:51;100159.75;;;21.27;35.17
56713;BME280;42589;45.536;9.032;2023-04-09T08:43:52;100169.97;;;21.77;35.23
56713;BME280;42589;45.536;9.032;2023-04-09T08:46:53;100172.94;;;21.04;36.28
56713;BME280;42589;45.536;9.032;2023-04-09T08:49:54;100177.22;;;21.31;35.97
56713;BME280;42589;45.536;9.032;2023-04-09T08:52:57;100157.00;;;22.24;34.84
56713;BME280;42589;45.536;9.032;2023-04-09T08:56:01;100177.53;;;23.07;33.24
56713;BME280;42589;45.536;9.032;2023-04-09T08:59:01;100173.84;;;22.76;33.00
56713;BME280;42589;45.536;9.032;2023-04-09T09:02:09;100177.91;;;23.29;32.90
56713;BME280;42589;45.536;9.032;2023-04-09T09:05:10;100177.34;;;22.58;34.19
56713;BME280;42589;45.536;9.032;2023-04-09T09:08:22;100171.72;;;23.40;32.33
56713;BME280;42589;45.536;9.032;2023-04-09T09:11:24;100164.47;;;23.34;31.32
56713;BME280;42589;45.536;9.032;2023-04-09T09:14:30;100174.34;;;23.95;31.35
56713;BME280;42589;45.536;9.032;2023-04-09T09:17:52;100174.88;;;23.74;30.69
56713;BME280;42589;45.536;9.032;2023-04-09T09:21:09;100171.41;;;23.30;30.66
56713;BME280;42589;45.536;9.032;2023-04-09T09:24:16;100170.22;;;23.07;31.25
56713;BME280;42589;45.536;9.032;2023-04-09T09:27:34;100158.78;;;22.80;32.06
56713;BME280;42589;45.536;9.032;2023-04-09T09:30:39;100163.16;;;22.81;32.53
56713;BME280;42589;45.536;9.032;2023-04-09T09:33:40;100161.63;;;22.42;32.38
56713;BME280;42589;45.536;9.032;2023-04-09T09:36:41;100161.03;;;22.65;32.39
56713;BME280;42589;45.536;9.032;2023-04-09T09:39:43;100141.03;;;22.84;31.42
56713;BME280;42589;45.536;9.032;2023-04-09T09:42:54;100147.59;;;23.50;31.27
56713;BME280;42589;45.536;9.032;2023-04-09T09:45:55;100135.50;;;23.64;30.48
56713;BME280;42589;45.536;9.032;2023-04-09T09:48:57;100138.19;;;23.83;30.83
56713;BME280;42589;45.536;9.032;2023-04-09T09:51:59;100154.63;;;22.59;33.04
56713;BME280;42589;45.536;9.032;2023-04-09T09:55:04;100145.53;;;23.64;30.57
56713;BME280;42589;45.536;9.032;2023-04-09T09:58:15;100151.91;;;23.21;31.35
56713;BME280;42589;45.536;9.032;2023-04-09T10:01:23;100156.53;;;23.99;29.91
56713;BME280;42589;45.536;9.032;2023-04-09T10:04:28;100142.75;;;23.52;29.97
56713;BME280;42589;45.536;9.032;2023-04-09T10:07:29;100148.25;;;23.94;30.90
56713;BME280;42589;45.536;9.032;2023-04-09T10:10:31;100121.16;;;24.18;29.91
56713;BME280;42589;45.536;9.032;2023-04-09T10:13:37;100144.91;;;24.22;29.40
56713;BME280;42589;45.536;9.032;2023-04-09T10:16:39;100121.22;;;24.41;28.76
56713;BME280;42589;45.536;9.032;2023-04-09T10:19:43;100140.13;;;24.48;29.03
56713;BME280;42589;45.536;9.032;2023-04-09T10:22:47;100135.75;;;24.59;29.12
56713;BME280;42589;45.536;9.032;2023-04-09T10:25:49;100134.56;;;24.54;28.93
56713;BME280;42589;45.536;9.032;2023-04-09T10:29:06;100133.34;;;24.27;29.39
56713;BME280;42589;45.536;9.032;2023-04-09T10:32:07;100129.59;;;24.63;28.44
56713;BME280;42589;45.536;9.032;2023-04-09T10:35:08;100118.88;;;24.68;28.75
56713;BME280;42589;45.536;9.032;2023-04-09T10:38:09;100113.88;;;24.89;28.52
56713;BME280;42589;45.536;9.032;2023-04-09T10:41:29;100120.81;;;24.14;29.68
56713;BME280;42589;45.536;9.032;2023-04-09T10:44:30;100116.53;;;24.06;29.88
56713;BME280;42589;45.536;9.032;2023-04-09T10:47:32;100114.28;;;24.03;29.79
56713;BME280;42589;45.536;9.032;2023-04-09T10:50:34;100113.28;;;24.87;28.77
56713;BME280;42589;45.536;9.032;2023-04-09T10:53:37;100099.91;;;25.09;28.08
56713;BME280;42589;45.536;9.032;2023-04-09T10:56:38;100097.94;;;25.33;27.79
56713;BME280;42589;45.536;9.032;2023-04-09T10:59:47;100087.03;;;25.61;27.73
56713;BME280;42589;45.536;9.032;2023-04-09T11:06:19;100075.78;;;23.83;28.72
56713;BME280;42589;45.536;9.032;2023-04-09T11:09:21;100079.94;;;24.32;29.35
56713;BME280;42589;45.536;9.032;2023-04-09T11:12:22;100079.38;;;24.30;28.63
56713;BME280;42589;45.536;9.032;2023-04-09T11:15:23;100087.75;;;24.88;27.75
56713;BME280;42589;45.536;9.032;2023-04-09T11:18:25;100056.56;;;24.20;27.42
56713;BME280;42589;45.536;9.032;2023-04-09T11:21:26;100073.25;;;24.23;27.63
56713;BME280;42589;45.536;9.032;2023-04-09T11:24:50;100070.22;;;23.90;28.51
56713;BME280;42589;45.536;9.032;2023-04-09T11:28:01;100021.94;;;25.14;27.21
56713;BME280;42589;45.536;9.032;2023-04-09T11:31:03;100065.69;;;25.82;27.02
56713;BME280;42589;45.536;9.032;2023-04-09T11:34:04;100065.25;;;25.04;26.63
56713;BME280;42589;45.536;9.032;2023-04-09T11:37:14;100064.63;;;25.26;26.85
56713;BME280;42589;45.536;9.032;2023-04-09T11:40:21;100053.28;;;25.91;26.97
56713;BME280;42589;45.536;9.032;2023-04-09T11:43:23;100030.34;;;25.41;25.90
56713;BME280;42589;45.536;9.032;2023-04-09T11:46:24;100053.72;;;26.16;26.43
56713;BME280;42589;45.536;9.032;2023-04-09T11:49:26;100039.22;;;24.56;28.38
56713;BME280;42589;45.536;9.032;2023-04-09T11:52:27;100055.31;;;25.21;28.00
56713;BME280;42589;45.536;9.032;2023-04-09T11:55:29;100053.88;;;25.93;26.15
56713;BME280;42589;45.536;9.032;2023-04-09T11:58:30;100032.41;;;26.13;26.14
56713;BME280;42589;45.536;9.032;2023-04-09T12:01:32;100034.53;;;26.67;24.95
56713;BME280;42589;45.536;9.032;2023-04-09T12:04:33;100030.38;;;25.75;25.82
56713;BME280;42589;45.536;9.032;2023-04-09T12:07:34;100035.13;;;24.94;26.53
56713;BME280;42589;45.536;9.032;2023-04-09T12:10:36;100033.75;;;25.20;26.37
56713;BME280;42589;45.536;9.032;2023-04-09T12:13:37;100038.47;;;25.53;25.91
56713;BME280;42589;45.536;9.032;2023-04-09T12:16:42;100026.00;;;25.00;26.32
56713;BME280;42589;45.536;9.032;2023-04-09T12:19:44;100037.09;;;25.39;26.81
56713;BME280;42589;45.536;9.032;2023-04-09T12:22:48;100038.38;;;25.65;26.05
56713;BME280;42589;45.536;9.032;2023-04-09T12:25:49;100012.69;;;25.89;25.81
56713;BME280;42589;45.536;9.032;2023-04-09T12:28:50;100034.50;;;25.04;25.60
56713;BME280;42589;45.536;9.032;2023-04-09T12:31:54;100030.00;;;25.66;25.12
56713;BME280;42589;45.536;9.032;2023-04-09T12:34:54;100006.94;;;25.86;24.74
56713;BME280;42589;45.536;9.032;2023-04-09T12:37:55;100027.34;;;25.26;26.36
56713;BME280;42589;45.536;9.032;2023-04-09T12:40:56;100017.72;;;25.07;25.29
56713;BME280;42589;45.536;9.032;2023-04-09T12:44:02;100012.84;;;25.66;25.07
56713;BME280;42589;45.536;9.032;2023-04-09T12:47:04;99983.16;;;26.37;24.83
56713;BME280;42589;45.536;9.032;2023-04-09T12:50:06;100013.91;;;26.71;24.14
56713;BME280;42589;45.536;9.032;2023-04-09T12:53:08;99996.16;;;26.30;24.64
56713;BME280;42589;45.536;9.032;2023-04-09T12:56:09;100007.47;;;25.54;24.70
56713;BME280;42589;45.536;9.032;2023-04-09T12:59:10;99994.28;;;24.77;26.27
56713;BME280;42589;45.536;9.032;2023-04-09T13:02:11;99996.03;;;25.86;25.00
56713;BME280;42589;45.536;9.032;2023-04-09T13:05:12;99976.88;;;25.64;24.80
56713;BME280;42589;45.536;9.032;2023-04-09T13:08:13;99974.78;;;25.54;24.94
56713;BME280;42589;45.536;9.032;2023-04-09T13:11:13;99988.69;;;25.86;24.91
56713;BME280;42589;45.536;9.032;2023-04-09T13:14:15;99979.84;;;25.96;24.36
56713;BME280;42589;45.536;9.032;2023-04-09T13:17:16;99985.16;;;25.12;25.84
56713;BME280;42589;45.536;9.032;2023-04-09T13:20:17;99983.06;;;25.14;25.63
56713;BME280;42589;45.536;9.032;2023-04-09T13:23:17;99950.94;;;25.78;25.19
56713;BME280;42589;45.536;9.032;2023-04-09T13:26:19;99971.34;;;25.92;25.37
56713;BME280;42589;45.536;9.032;2023-04-09T13:29:19;99935.16;;;26.14;24.31
56713;BME280;42589;45.536;9.032;2023-04-09T13:32:20;99952.75;;;26.06;24.64
56713;BME280;42589;45.536;9.032;2023-04-09T13:35:22;99942.09;;;26.44;24.48
56713;BME280;42589;45.536;9.032;2023-04-09T13:38:23;99949.88;;;26.52;23.84
56713;BME280;42589;45.536;9.032;2023-04-09T13:41:26;99932.88;;;25.55;25.12
56713;BME280;42589;45.536;9.032;2023-04-09T13:44:29;99898.38;;;25.10;24.61
56713;BME280;42589;45.536;9.032;2023-04-09T13:47:29;99943.38;;;26.36;24.01
56713;BME280;42589;45.536;9.032;2023-04-09T13:50:30;99942.84;;;26.00;24.19
56713;BME280;42589;45.536;9.032;2023-04-09T13:53:32;99937.84;;;25.92;25.07
56713;BME280;42589;45.536;9.032;2023-04-09T13:56:33;99939.31;;;26.16;23.67
56713;BME280;42589;45.536;9.032;2023-04-09T13:59:34;99943.31;;;25.92;24.03
56713;BME280;42589;45.536;9.032;2023-04-09T14:02:35;99932.47;;;26.36;23.04
56713;BME280;42589;45.536;9.032;2023-04-09T14:05:35;99924.91;;;25.82;24.65
56713;BME280;42589;45.536;9.032;2023-04-09T14:08:39;99928.19;;;25.84;24.38
56713;BME280;42589;45.536;9.032;2023-04-09T14:11:40;99904.84;;;25.88;23.59
56713;BME280;42589;45.536;9.032;2023-04-09T14:14:41;99917.78;;;25.98;23.77
56713;BME280;42589;45.536;9.032;2023-04-09T14:17:42;99909.41;;;25.32;24.17
56713;BME280;42589;45.536;9.032;2023-04-09T14:20:43;99913.13;;;26.15;24.58
56713;BME280;42589;45.536;9.032;2023-04-09T14:23:44;99911.97;;;26.11;23.82
56713;BME280;42589;45.536;9.032;2023-04-09T14:26:45;99900.97;;;25.67;24.00
56713;BME280;42589;45.536;9.032;2023-04-09T14:29:45;99905.41;;;26.07;24.11
56713;BME280;42589;45.536;9.032;2023-04-09T14:32:47;99887.34;;;25.84;23.55
56713;BME280;42589;45.536;9.032;2023-04-09T14:35:51;99887.16;;;25.07;24.36
56713;BME280;42589;45.536;9.032;2023-04-09T14:38:52;99903.94;;;25.32;24.48
56713;BME280;42589;45.536;9.032;2023-04-09T14:41:52;99888.44;;;25.50;24.68
56713;BME280;42589;45.536;9.032;2023-04-09T14:44:54;99892.72;;;25.62;24.10
56713;BME280;42589;45.536;9.032;2023-04-09T14:47:55;99887.84;;;26.20;23.88
56713;BME280;42589;45.536;9.032;2023-04-09T14:50:55;99894.84;;;26.55;23.27
56713;BME280;42589;45.536;9.032;2023-04-09T14:53:56;99882.03;;;26.33;23.38
56713;BME280;42589;45.536;9.032;2023-04-09T14:56:57;99878.19;;;25.74;23.66
56713;BME280;42589;45.536;9.032;2023-04-09T14:59:58;99872.00;;;25.95;24.00
56713;BME280;42589;45.536;9.032;2023-04-09T15:02:59;99891.72;;;25.68;24.12
56713;BME280;42589;45.536;9.032;2023-04-09T15:06:00;99884.03;;;25.99;23.46
56713;BME280;42589;45.536;9.032;2023-04-09T15:09:01;99890.22;;;25.10;24.14
56713;BME280;42589;45.536;9.032;2023-04-09T15:12:02;99881.69;;;25.52;23.17
56713;BME280;42589;45.536;9.032;2023-04-09T15:15:05;99878.88;;;25.13;23.96
56713;BME280;42589;45.536;9.032;2023-04-09T15:18:07;99878.47;;;26.11;23.17
56713;BME280;42589;45.536;9.032;2023-04-09T15:21:08;99887.06;;;26.47;23.33
56713;BME280;42589;45.536;9.032;2023-04-09T15:24:09;99882.13;;;26.44;22.62
56713;BME280;42589;45.536;9.032;2023-04-09T15:27:10;99874.53;;;26.02;23.21
56713;BME280;42589;45.536;9.032;2023-04-09T15:30:10;99871.41;;;25.93;23.38
56713;BME280;42589;45.536;9.032;2023-04-09T15:33:11;99852.88;;;25.56;23.55
56713;BME280;42589;45.536;9.032;2023-04-09T15:36:12;99872.72;;;26.29;22.89
56713;BME280;42589;45.536;9.032;2023-04-09T15:39:13;99866.97;;;26.75;23.19
56713;BME280;42589;45.536;9.032;2023-04-09T15:42:14;99866.72;;;27.36;22.36
56713;BME280;42589;45.536;9.032;2023-04-09T15:45:19;99863.91;;;26.98;22.27
56713;BME280;42589;45.536;9.032;2023-04-09T15:48:20;99877.09;;;27.39;22.34
56713;BME280;42589;45.536;9.032;2023-04-09T15:51:21;99868.56;;;28.98;20.36
56713;BME280;42589;45.536;9.032;2023-04-09T15:54:21;99872.38;;;30.54;18.59
56713;BME280;42589;45.536;9.032;2023-04-09T15:57:22;99879.84;;;30.43;19.33
56713;BME280;42589;45.536;9.032;2023-04-09T16:00:24;99873.94;;;30.21;18.73
56713;BME280;42589;45.536;9.032;2023-04-09T16:03:24;99871.94;;;30.42;18.86
56713;BME280;42589;45.536;9.032;2023-04-09T16:06:25;99872.69;;;31.95;17.21